Time;durP1;ratioP1;P1;durP2;ratioP2;P2;SDS_P1;SDS_P2;PMS_P1;PMS_P2;Temp;Humidity;BMP_temperature;BMP_pressure;BME280_temperature;BME280_humidity;BME280_pressure;Samples;Min_cycle;Max_cycle;Signal;HPM_P1;HPM_P2
2021/05/08 00:00:24;;;;;;;9.13;4.47;;;6.00;99.90;;;;;;5054458;28;20027;-74
2021/05/08 00:02:51;;;;;;;5.20;4.05;;;5.90;99.90;;;;;;5073457;28;20032;-74
2021/05/08 00:05:17;;;;;;;7.65;4.45;;;6.00;99.90;;;;;;5073180;28;20036;-75
2021/05/08 00:07:42;;;;;;;5.00;4.43;;;6.10;99.90;;;;;;5073018;28;20028;-75
2021/05/08 00:10:13;;;;;;;6.15;4.20;;;6.10;99.90;;;;;;5055329;28;20468;-75
2021/05/08 00:12:39;;;;;;;5.00;3.97;;;5.90;99.90;;;;;;5073298;28;20017;-75
2021/05/08 00:15:06;;;;;;;6.15;4.68;;;5.80;99.90;;;;;;5055327;28;20125;-75
2021/05/08 00:17:32;;;;;;;9.75;4.35;;;5.90;99.90;;;;;;5073013;28;20033;-75
2021/05/08 00:19:58;;;;;;;5.85;4.40;;;5.90;99.90;;;;;;5055176;28;20028;-75
2021/05/08 00:22:23;;;;;;;6.85;4.60;;;5.90;99.90;;;;;;5073041;28;20060;-75
2021/05/08 00:24:49;;;;;;;8.02;4.68;;;5.80;99.90;;;;;;5054958;28;20395;-75
2021/05/08 00:27:15;;;;;;;6.28;4.15;;;5.80;99.90;;;;;;5072741;28;20027;-75
2021/05/08 00:29:41;;;;;;;8.32;4.68;;;5.80;99.90;;;;;;5072889;28;20434;-74
2021/05/08 00:32:07;;;;;;;5.93;4.35;;;5.80;99.90;;;;;;5072858;28;20048;-75
2021/05/08 00:34:32;;;;;;;7.72;4.07;;;5.80;99.90;;;;;;5072677;28;20029;-75
2021/05/08 00:36:58;;;;;;;5.97;4.38;;;5.80;99.90;;;;;;5038112;28;20082;-75
2021/05/08 00:39:24;;;;;;;6.75;4.00;;;5.80;99.90;;;;;;5054837;28;20116;-75
2021/05/08 00:41:51;;;;;;;6.68;4.03;;;5.70;99.90;;;;;;5072654;28;20029;-75
2021/05/08 00:44:18;;;;;;;5.53;4.40;;;5.80;99.90;;;;;;5054809;28;20177;-75
2021/05/08 00:46:44;;;;;;;5.55;4.00;;;5.70;99.90;;;;;;5054499;28;20032;-75
2021/05/08 00:49:10;;;;;;;8.10;3.78;;;5.50;99.90;;;;;;5072508;28;20032;-74
2021/05/08 00:51:36;;;;;;;4.93;4.38;;;5.50;99.90;;;;;;5038137;28;20102;-75
2021/05/08 00:54:02;;;;;;;7.78;5.80;;;5.60;99.90;;;;;;5072341;28;20025;-75
2021/05/08 00:56:28;;;;;;;8.10;4.72;;;5.60;99.90;;;;;;5054532;28;20046;-75
2021/05/08 00:58:54;;;;;;;7.57;4.18;;;5.60;99.90;;;;;;5054463;28;20031;-75
2021/05/08 01:01:20;;;;;;;7.65;4.25;;;5.70;99.90;;;;;;5072305;28;20430;-75
2021/05/08 01:03:46;;;;;;;7.20;4.30;;;5.80;99.90;;;;;;5072206;28;20107;-75
2021/05/08 01:06:12;;;;;;;11.55;4.18;;;5.80;99.90;;;;;;5072122;28;20096;-75
2021/05/08 01:08:38;;;;;;;6.35;4.38;;;5.80;99.90;;;;;;5054448;28;20031;-75
2021/05/08 01:11:05;;;;;;;4.18;3.67;;;5.70;99.90;;;;;;5037497;28;20017;-75
2021/05/08 01:13:34;;;;;;;7.03;3.90;;;5.60;99.90;;;;;;5054086;28;20020;-75
2021/05/08 01:16:00;;;;;;;5.32;3.83;;;5.60;99.90;;;;;;5072057;28;20500;-75
2021/05/08 01:18:26;;;;;;;6.50;3.85;;;5.50;99.90;;;;;;5072214;28;20058;-75
2021/05/08 01:20:52;;;;;;;13.70;4.53;;;5.60;99.90;;;;;;5054096;28;20066;-74
2021/05/08 01:23:19;;;;;;;5.82;4.28;;;5.60;99.90;;;;;;5072009;28;20025;-75
2021/05/08 01:25:45;;;;;;;6.07;3.92;;;5.60;99.90;;;;;;5071941;28;20128;-75
2021/05/08 01:28:10;;;;;;;7.90;4.32;;;5.60;99.90;;;;;;5053985;28;20060;-75
2021/05/08 01:30:37;;;;;;;6.47;4.28;;;5.40;99.90;;;;;;5072171;28;20051;-75
2021/05/08 01:33:04;;;;;;;5.15;3.78;;;5.40;99.90;;;;;;5072075;28;20025;-74
2021/05/08 01:35:30;;;;;;;6.10;4.05;;;5.40;99.90;;;;;;5037376;28;20033;-74
2021/05/08 01:37:57;;;;;;;6.40;4.22;;;5.40;99.90;;;;;;5071925;28;20021;-75
2021/05/08 01:40:32;;;;;;;6.28;4.13;;;5.50;99.90;;;;;;5071854;28;20024;-75
2021/05/08 01:42:58;;;;;;;6.93;3.85;;;5.50;99.90;;;;;;5071776;28;20032;-75
2021/05/08 01:45:25;;;;;;;6.95;5.00;;;5.50;99.90;;;;;;5071848;28;20032;-75
2021/05/08 01:58:53;;;;;;;5.03;3.90;;;5.30;99.90;;;;;;5072078;28;20420;-75
2021/05/08 02:01:19;;;;;;;7.40;4.10;;;5.50;99.90;;;;;;5071685;28;20020;-75
2021/05/08 02:03:45;;;;;;;5.95;3.65;;;5.50;99.90;;;;;;5071569;28;20025;-75
2021/05/08 02:06:10;;;;;;;7.75;4.32;;;5.40;99.90;;;;;;5071491;28;20055;-75
2021/05/08 02:08:36;;;;;;;6.28;3.97;;;5.20;99.90;;;;;;5071745;28;20142;-75
2021/05/08 02:11:02;;;;;;;6.38;4.20;;;5.20;99.90;;;;;;5071903;28;20021;-75
2021/05/08 02:13:28;;;;;;;4.70;3.80;;;5.20;99.90;;;;;;5072181;28;20028;-75
2021/05/08 02:15:54;;;;;;;9.27;4.03;;;5.40;99.90;;;;;;5054739;28;20024;-75
2021/05/08 02:18:19;;;;;;;6.03;4.18;;;5.30;99.90;;;;;;5054277;28;20033;-75
2021/05/08 02:20:46;;;;;;;6.65;4.25;;;5.10;99.90;;;;;;5054083;28;20439;-75
2021/05/08 02:23:14;;;;;;;5.40;3.88;;;5.00;99.90;;;;;;5072238;28;20510;-73
2021/05/08 02:25:40;;;;;;;5.30;3.95;;;4.90;99.90;;;;;;5075541;28;20098;-73
2021/05/08 02:28:07;;;;;;;7.40;4.07;;;4.70;99.90;;;;;;5075270;28;20104;-72
2021/05/08 02:30:35;;;;;;;6.78;4.40;;;4.60;99.90;;;;;;5075231;28;20055;-72
2021/05/08 02:33:02;;;;;;;8.13;4.13;;;4.60;99.90;;;;;;5075131;28;20536;-72
2021/05/08 02:35:29;;;;;;;11.27;4.20;;;4.60;99.90;;;;;;5075015;28;20021;-72
2021/05/08 02:37:57;;;;;;;5.13;4.40;;;4.60;99.90;;;;;;5056981;28;20031;-72
2021/05/08 02:40:37;;;;;;;8.00;3.92;;;4.40;99.90;;;;;;5075008;28;20028;-72
2021/05/08 02:43:04;;;;;;;5.50;3.92;;;4.20;99.90;;;;;;5056964;28;20055;-72
2021/05/08 02:45:30;;;;;;;7.32;4.10;;;4.20;99.90;;;;;;5056772;28;20040;-72
2021/05/08 02:47:55;;;;;;;12.20;4.70;;;4.00;99.90;;;;;;5056699;28;20070;-72
2021/05/08 02:50:22;;;;;;;8.85;4.35;;;3.90;99.90;;;;;;5074677;28;20036;-72
2021/05/08 02:52:48;;;;;;;5.53;4.40;;;4.10;99.90;;;;;;5074774;28;20507;-72
2021/05/08 02:55:15;;;;;;;7.85;4.22;;;4.30;99.90;;;;;;5056492;28;20060;-72
2021/05/08 02:57:41;;;;;;;6.75;4.05;;;4.30;99.90;;;;;;5074510;28;20025;-72
2021/05/08 03:00:09;;;;;;;6.38;4.47;;;4.20;99.90;;;;;;5074677;28;20522;-72
2021/05/08 03:02:35;;;;;;;6.07;4.65;;;4.20;99.90;;;;;;5074630;28;20480;-72
2021/05/08 03:05:02;;;;;;;5.32;4.15;;;4.50;99.90;;;;;;5074442;28;20025;-72
2021/05/08 03:07:28;;;;;;;5.22;4.20;;;4.40;99.90;;;;;;5074194;28;20029;-72
2021/05/08 03:09:54;;;;;;;6.55;4.35;;;4.50;99.90;;;;;;5074449;28;20021;-72
2021/05/08 03:12:19;;;;;;;7.10;4.32;;;4.40;99.90;;;;;;5074247;28;20029;-72
2021/05/08 03:14:45;;;;;;;6.38;4.10;;;4.30;99.90;;;;;;5074337;28;20495;-72
2021/05/08 03:17:11;;;;;;;8.85;5.57;;;4.20;99.90;;;;;;5074272;28;20103;-72
2021/05/08 03:19:37;;;;;;;8.00;4.68;;;4.10;99.90;;;;;;5074332;28;20125;-72
2021/05/08 03:22:04;;;;;;;8.10;4.45;;;4.00;99.90;;;;;;5074156;28;20031;-72
2021/05/08 03:24:30;;;;;;;6.28;4.20;;;4.10;99.90;;;;;;5075654;22;20488;-71
2021/05/08 03:26:56;;;;;;;7.60;4.63;;;4.20;99.90;;;;;;5054153;28;20021;-71
2021/05/08 03:29:21;;;;;;;9.27;4.35;;;4.30;99.90;;;;;;5036065;28;20439;-71
2021/05/08 03:31:47;;;;;;;6.15;4.13;;;4.20;99.90;;;;;;5036093;28;20039;-70
2021/05/08 03:34:13;;;;;;;11.70;5.00;;;4.00;99.90;;;;;;5036043;28;20029;-71
2021/05/08 03:36:39;;;;;;;6.65;4.25;;;3.80;99.90;;;;;;5035919;28;20491;-71
2021/05/08 03:39:05;;;;;;;6.38;4.03;;;3.90;99.90;;;;;;5036121;28;20041;-71
2021/05/08 03:41:31;;;;;;;7.00;4.53;;;4.00;99.90;;;;;;5053831;28;20468;-71
2021/05/08 03:43:56;;;;;;;5.80;4.22;;;4.00;99.90;;;;;;5035928;28;20033;-71
2021/05/08 03:46:23;;;;;;;8.90;4.93;;;4.00;99.90;;;;;;5053715;28;20045;-72
2021/05/08 03:48:49;;;;;;;7.75;4.63;;;3.90;99.90;;;;;;5053751;28;20025;-71
2021/05/08 03:51:15;;;;;;;8.93;4.63;;;3.80;99.90;;;;;;5053598;28;20016;-71
2021/05/08 03:53:41;;;;;;;5.78;4.10;;;3.80;99.90;;;;;;5019189;28;20103;-71
2021/05/08 03:56:07;;;;;;;5.97;4.63;;;3.80;99.90;;;;;;5035775;28;20500;-70
2021/05/08 03:58:32;;;;;;;5.78;4.30;;;3.80;99.90;;;;;;5035591;28;20427;-70
2021/05/08 04:00:59;;;;;;;8.23;4.97;;;3.70;99.90;;;;;;5053573;28;20021;-70
2021/05/08 04:03:25;;;;;;;7.82;4.82;;;3.60;99.90;;;;;;5019031;28;20444;-70
2021/05/08 04:05:51;;;;;;;11.38;4.53;;;3.50;99.90;;;;;;5035352;28;20029;-71
2021/05/08 04:08:17;;;;;;;6.47;4.57;;;3.60;99.90;;;;;;5053553;28;20375;-71
2021/05/08 04:10:50;;;;;;;12.55;5.00;;;3.60;99.90;;;;;;5035555;28;20087;-71
2021/05/08 04:13:17;;;;;;;12.40;5.00;;;3.60;99.90;;;;;;5035475;28;20078;-71
2021/05/08 04:15:46;;;;;;;10.00;5.70;;;3.70;99.90;;;;;;5035136;28;20025;-71
2021/05/08 04:18:11;;;;;;;7.68;4.55;;;3.80;99.90;;;;;;5053277;28;20476;-71
2021/05/08 04:20:38;;;;;;;6.75;4.82;;;3.90;99.90;;;;;;5035234;28;20071;-71
2021/05/08 04:23:04;;;;;;;8.85;4.10;;;3.90;99.90;;;;;;5034975;28;20083;-71
2021/05/08 04:25:30;;;;;;;6.65;4.22;;;4.00;99.90;;;;;;5052944;28;20032;-71
2021/05/08 04:27:55;;;;;;;7.22;4.95;;;4.00;99.90;;;;;;5035065;28;20033;-71
2021/05/08 04:30:22;;;;;;;8.05;5.00;;;4.00;99.90;;;;;;5035189;28;20070;-71
2021/05/08 04:32:48;;;;;;;5.47;4.18;;;4.00;99.90;;;;;;5035098;28;20021;-71
2021/05/08 04:35:14;;;;;;;7.03;4.25;;;4.00;99.90;;;;;;5034917;28;20032;-71
2021/05/08 04:37:39;;;;;;;6.00;4.72;;;3.90;99.90;;;;;;5034883;28;20033;-71
2021/05/08 04:40:06;;;;;;;5.93;4.03;;;4.00;99.90;;;;;;5034696;28;20029;-71
2021/05/08 04:42:32;;;;;;;7.57;4.57;;;4.00;99.90;;;;;;5052668;28;20078;-71
2021/05/08 04:44:58;;;;;;;5.72;4.47;;;4.00;99.90;;;;;;5034728;28;20029;-71
2021/05/08 04:47:24;;;;;;;6.80;4.43;;;4.20;99.90;;;;;;5034176;28;20506;-71
2021/05/08 04:49:54;;;;;;;6.15;4.68;;;4.30;99.90;;;;;;5052790;28;20021;-71
2021/05/08 04:52:20;;;;;;;8.60;4.72;;;4.40;99.90;;;;;;5018155;28;20135;-71
2021/05/08 04:54:45;;;;;;;8.63;4.85;;;4.60;99.90;;;;;;5052505;28;20048;-71
2021/05/08 04:57:12;;;;;;;7.75;4.97;;;4.60;99.90;;;;;;5034490;28;20033;-70
2021/05/08 04:59:38;;;;;;;9.48;4.22;;;4.70;99.90;;;;;;5034584;28;20104;-71
2021/05/08 05:02:04;;;;;;;5.20;4.03;;;4.90;99.90;;;;;;5034459;28;20133;-71
2021/05/08 05:04:30;;;;;;;9.15;4.20;;;5.00;99.90;;;;;;5052226;28;20040;-71
2021/05/08 05:06:55;;;;;;;6.13;4.00;;;5.10;99.90;;;;;;5052536;28;20063;-71
2021/05/08 05:09:23;;;;;;;6.07;4.05;;;5.10;99.90;;;;;;5052257;28;20025;-71
2021/05/08 05:11:49;;;;;;;8.38;4.45;;;5.20;99.90;;;;;;5034363;28;20503;-71
2021/05/08 05:14:15;;;;;;;7.13;4.40;;;5.30;99.90;;;;;;5052190;28;20509;-71
2021/05/08 05:16:41;;;;;;;8.63;4.03;;;5.40;99.90;;;;;;5052029;28;20021;-71
2021/05/08 05:19:07;;;;;;;8.13;4.70;;;5.50;99.90;;;;;;5034204;28;20033;-72
2021/05/08 05:21:32;;;;;;;7.50;4.32;;;5.60;99.90;;;;;;5052147;28;20033;-70
2021/05/08 05:23:58;;;;;;;7.38;4.82;;;5.80;99.90;;;;;;5017438;28;20028;-71
2021/05/08 05:26:26;;;;;;;6.13;3.75;;;5.80;99.90;;;;;;5051867;28;20025;-75
2021/05/08 05:28:51;;;;;;;9.60;4.75;;;5.90;99.90;;;;;;5017677;28;20021;-74
2021/05/08 05:31:18;;;;;;;7.03;4.05;;;6.00;99.90;;;;;;5034364;28;20074;-74
2021/05/08 05:33:44;;;;;;;8.95;4.00;;;6.00;99.90;;;;;;5034077;28;20025;-74
2021/05/08 05:36:09;;;;;;;12.27;4.82;;;6.20;99.90;;;;;;5034034;28;20028;-75
2021/05/08 05:38:35;;;;;;;6.80;3.90;;;6.30;99.90;;;;;;5033920;28;20029;-74
2021/05/08 05:41:01;;;;;;;5.53;3.65;;;6.40;99.90;;;;;;5051818;28;20025;-74
2021/05/08 05:43:26;;;;;;;10.48;4.15;;;6.40;99.90;;;;;;5051783;28;20024;-74
2021/05/08 05:45:52;;;;;;;6.43;3.88;;;6.50;99.90;;;;;;5033717;28;20028;-75
2021/05/08 05:48:19;;;;;;;7.35;4.03;;;6.60;99.90;;;;;;5051762;28;20036;-75
2021/05/08 05:50:46;;;;;;;11.27;4.13;;;6.60;99.90;;;;;;5033734;28;20083;-74
2021/05/08 05:53:12;;;;;;;10.38;3.88;;;6.70;99.90;;;;;;5051514;28;20021;-74
2021/05/08 05:55:38;;;;;;;4.70;3.60;;;6.90;99.90;;;;;;5033779;28;20021;-75
2021/05/08 05:58:05;;;;;;;7.68;4.10;;;7.10;99.90;;;;;;5052075;28;20035;-74
2021/05/08 06:00:31;;;;;;;7.25;4.07;;;7.20;99.90;;;;;;5037905;28;20033;-74
2021/05/08 06:02:57;;;;;;;4.72;3.75;;;7.30;99.90;;;;;;5037866;28;20059;-74
2021/05/08 06:05:23;;;;;;;5.97;3.80;;;7.50;99.90;;;;;;5021143;28;20036;-75
2021/05/08 06:07:49;;;;;;;5.93;3.53;;;7.50;99.90;;;;;;5055330;28;20029;-75
2021/05/08 06:10:15;;;;;;;5.55;3.25;;;7.60;99.90;;;;;;5037695;28;20025;-74
2021/05/08 06:12:41;;;;;;;6.63;3.50;;;7.70;99.90;;;;;;5037434;28;20024;-75
2021/05/08 06:15:08;;;;;;;6.25;3.00;;;7.80;99.90;;;;;;5037469;28;20566;-74
2021/05/08 06:17:35;;;;;;;7.63;3.38;;;7.80;98.80;;;;;;5020949;28;20025;-75
2021/05/08 06:20:01;;;;;;;6.70;2.90;;;7.80;98.50;;;;;;5055368;28;20025;-74
2021/05/08 06:22:27;;;;;;;6.57;3.50;;;7.90;98.80;;;;;;5037397;28;20025;-74
2021/05/08 06:24:52;;;;;;;4.03;3.30;;;8.00;97.30;;;;;;5037307;28;20025;-75
2021/05/08 06:27:18;;;;;;;4.32;3.10;;;8.20;95.90;;;;;;5055006;28;20032;-75
2021/05/08 06:29:44;;;;;;;4.72;3.35;;;8.30;95.00;;;;;;5020924;28;20111;-74
2021/05/08 06:32:10;;;;;;;4.32;3.22;;;8.30;94.50;;;;;;5055146;28;20017;-75
2021/05/08 06:34:35;;;;;;;5.38;3.03;;;8.60;94.30;;;;;;5054930;28;20029;-75
2021/05/08 06:37:02;;;;;;;6.93;3.47;;;8.70;93.90;;;;;;5054880;28;20029;-75
2021/05/08 06:39:29;;;;;;;5.65;2.58;;;8.90;93.40;;;;;;5020680;28;20086;-75
2021/05/08 06:41:56;;;;;;;4.25;2.75;;;9.00;92.60;;;;;;5037112;28;20029;-74
2021/05/08 06:44:24;;;;;;;4.80;3.00;;;9.10;92.20;;;;;;5037081;28;20287;-74
2021/05/08 06:46:54;;;;;;;3.92;2.65;;;9.20;90.60;;;;;;5036870;28;20020;-74
2021/05/08 06:49:20;;;;;;;7.03;3.38;;;9.40;90.10;;;;;;5037206;28;20029;-75
2021/05/08 06:51:46;;;;;;;2.85;2.50;;;9.70;89.80;;;;;;5054573;28;20029;-75
2021/05/08 06:54:12;;;;;;;4.03;2.28;;;9.80;87.30;;;;;;5036653;28;20029;-75
2021/05/08 06:56:38;;;;;;;3.35;2.40;;;9.80;83.80;;;;;;5036804;28;20028;-75
2021/05/08 06:59:04;;;;;;;6.75;2.28;;;10.00;84.60;;;;;;5036867;28;20400;-74
2021/05/08 07:01:29;;;;;;;6.10;3.00;;;10.20;80.30;;;;;;5054523;28;20052;-74
2021/05/08 07:03:56;;;;;;;2.78;2.20;;;10.10;79.90;;;;;;5036462;28;20044;-75
2021/05/08 07:06:24;;;;;;;4.13;2.08;;;10.20;80.50;;;;;;5054456;28;20091;-75
2021/05/08 07:08:51;;;;;;;4.72;2.60;;;10.40;80.50;;;;;;5036216;28;20484;-75
2021/05/08 07:11:17;;;;;;;3.17;2.17;;;10.60;80.10;;;;;;5036732;28;20028;-75
2021/05/08 07:13:42;;;;;;;2.15;1.98;;;10.80;76.90;;;;;;5036420;28;20021;-75
2021/05/08 07:16:08;;;;;;;4.70;2.05;;;10.90;72.90;;;;;;5054199;28;20029;-75
2021/05/08 07:18:34;;;;;;;3.25;2.08;;;10.90;70.60;;;;;;5036519;28;20025;-75
2021/05/08 07:21:00;;;;;;;2.42;1.50;;;11.10;69.60;;;;;;5054455;28;20033;-75
2021/05/08 07:23:25;;;;;;;3.53;2.08;;;11.10;67.30;;;;;;5036336;28;20037;-75
2021/05/08 07:25:51;;;;;;;6.90;2.42;;;11.30;69.00;;;;;;5054046;28;20124;-76
2021/05/08 07:28:23;;;;;;;3.13;2.50;;;11.30;67.10;;;;;;5054315;28;20017;-74
2021/05/08 07:30:51;;;;;;;5.60;2.30;;;11.50;66.70;;;;;;5019677;28;20025;-75
2021/05/08 07:33:18;;;;;;;3.67;1.90;;;11.90;63.30;;;;;;5053799;28;20366;-74
2021/05/08 07:35:44;;;;;;;2.75;1.90;;;11.90;62.00;;;;;;5053947;28;20380;-75
2021/05/08 07:38:11;;;;;;;4.72;1.92;;;12.10;59.80;;;;;;5053779;28;20021;-75
2021/05/08 07:40:38;;;;;;;4.65;1.63;;;12.20;60.20;;;;;;5035743;28;20423;-76
2021/05/08 07:43:05;;;;;;;5.63;2.85;;;12.50;61.90;;;;;;5053799;28;20036;-75
2021/05/08 07:45:31;;;;;;;3.22;1.92;;;12.40;63.60;;;;;;5035909;28;20120;-76
2021/05/08 07:47:58;;;;;;;4.68;2.30;;;12.30;63.70;;;;;;5035853;28;20499;-74
2021/05/08 07:50:25;;;;;;;3.40;2.65;;;12.50;62.10;;;;;;5052671;28;20025;-74
2021/05/08 07:52:51;;;;;;;2.55;2.03;;;12.40;60.10;;;;;;5035790;28;20374;-75
2021/05/08 07:55:16;;;;;;;5.50;1.65;;;12.50;58.70;;;;;;5053387;28;20107;-74
2021/05/08 07:57:42;;;;;;;1.83;1.48;;;12.70;56.10;;;;;;5035561;28;20358;-74
2021/05/08 08:00:10;;;;;;;5.93;2.65;;;12.90;55.40;;;;;;5053458;28;20108;-74
2021/05/08 08:02:36;;;;;;;2.85;1.67;;;13.00;55.30;;;;;;5018863;28;20033;-74
2021/05/08 08:05:04;;;;;;;2.33;1.70;;;12.80;55.10;;;;;;5035127;28;20396;-76
2021/05/08 08:07:30;;;;;;;6.40;1.90;;;12.70;55.90;;;;;;5018733;28;20021;-74
2021/05/08 08:09:56;;;;;;;5.20;2.03;;;12.90;55.10;;;;;;5053352;28;20083;-75
2021/05/08 08:12:21;;;;;;;1.65;1.30;;;13.30;55.40;;;;;;5035525;28;20048;-75
2021/05/08 08:14:48;;;;;;;2.53;1.73;;;13.50;53.20;;;;;;5053227;28;20028;-75
2021/05/08 08:17:14;;;;;;;2.90;1.55;;;13.50;52.90;;;;;;5035193;28;20025;-75
2021/05/08 08:19:39;;;;;;;5.75;2.03;;;13.50;52.70;;;;;;5053099;28;20528;-75
2021/05/08 08:22:05;;;;;;;1.77;1.45;;;13.70;52.70;;;;;;5034401;28;20036;-75
2021/05/08 08:24:31;;;;;;;1.90;1.52;;;13.70;52.30;;;;;;5035297;28;20039;-75
2021/05/08 08:26:57;;;;;;;3.00;1.60;;;13.80;52.80;;;;;;5034947;28;20099;-75
2021/05/08 08:29:23;;;;;;;3.33;2.03;;;13.70;51.30;;;;;;5034946;28;20017;-75
2021/05/08 08:31:49;;;;;;;5.15;1.50;;;13.70;51.90;;;;;;5018877;28;20031;-75
2021/05/08 08:34:14;;;;;;;5.03;1.70;;;13.60;51.80;;;;;;5035174;28;20424;-75
2021/05/08 08:36:41;;;;;;;2.28;1.42;;;14.00;53.10;;;;;;5052517;28;20108;-75
2021/05/08 08:39:06;;;;;;;1.35;1.25;;;14.40;52.10;;;;;;5052430;28;20048;-75
2021/05/08 08:41:33;;;;;;;3.55;1.70;;;14.70;50.90;;;;;;5034741;28;20562;-75
2021/05/08 08:43:58;;;;;;;3.20;1.27;;;14.70;49.60;;;;;;5018264;28;20036;-75
2021/05/08 08:46:24;;;;;;;2.78;1.42;;;15.00;50.40;;;;;;5034645;28;20032;-76
2021/05/08 08:48:51;;;;;;;1.52;1.30;;;15.30;48.80;;;;;;5018076;28;20021;-75
2021/05/08 08:51:17;;;;;;;3.40;1.52;;;15.20;48.60;;;;;;5052562;28;20028;-75
2021/05/08 08:53:44;;;;;;;3.55;2.10;;;15.20;50.30;;;;;;5034728;28;20028;-74
2021/05/08 08:56:11;;;;;;;4.57;1.55;;;15.20;49.00;;;;;;5052209;28;20025;-74
2021/05/08 08:58:39;;;;;;;1.60;1.15;;;15.20;49.20;;;;;;5034513;28;20063;-74
2021/05/08 09:01:05;;;;;;;3.30;1.52;;;15.50;49.80;;;;;;5034659;28;20040;-75
2021/05/08 09:03:32;;;;;;;1.95;1.10;;;15.70;50.60;;;;;;5034269;28;20025;-75
2021/05/08 09:06:01;;;;;;;3.40;1.40;;;16.00;50.10;;;;;;5034166;28;20064;-75
2021/05/08 09:08:32;;;;;;;3.67;1.52;;;16.10;47.80;;;;;;5034248;28;20028;-75
2021/05/08 09:11:21;;;;;;;3.88;1.52;;;16.10;49.00;;;;;;5052113;28;20067;-75
2021/05/08 09:13:47;;;;;;;2.78;1.60;;;16.50;47.80;;;;;;5034376;28;20025;-77
2021/05/08 09:16:13;;;;;;;2.08;1.30;;;16.80;49.00;;;;;;5052168;28;20080;-75
2021/05/08 09:18:40;;;;;;;2.92;1.73;;;16.90;48.90;;;;;;5034543;28;20029;-75
2021/05/08 09:21:26;;;;;;;1.50;1.10;;;17.10;48.00;;;;;;5052394;28;20456;-74
2021/05/08 09:23:58;;;;;;;1.48;1.10;;;17.20;46.40;;;;;;5017643;28;20060;-75
2021/05/08 09:26:23;;;;;;;1.75;1.27;;;17.00;45.90;;;;;;5051882;28;20096;-74
2021/05/08 09:28:53;;;;;;;2.50;1.30;;;16.80;46.10;;;;;;5051886;28;20090;-76
2021/05/08 09:31:19;;;;;;;4.30;1.10;;;17.10;46.20;;;;;;5034196;28;20304;-76
2021/05/08 09:33:53;;;;;;;4.07;0.93;;;17.10;45.80;;;;;;5034103;28;20100;-76
2021/05/08 09:36:19;;;;;;;1.65;1.02;;;16.90;44.70;;;;;;5051857;28;20029;-76
2021/05/08 09:38:46;;;;;;;2.05;1.30;;;17.20;45.70;;;;;;5034229;28;20487;-76
2021/05/08 09:41:13;;;;;;;3.42;1.27;;;17.30;45.30;;;;;;5036358;28;20025;-76
2021/05/08 09:43:40;;;;;;;2.10;1.00;;;17.60;45.40;;;;;;5034570;28;20028;-76
2021/05/08 09:46:07;;;;;;;1.98;1.20;;;17.30;44.30;;;;;;5051485;28;20074;-76
2021/05/08 09:48:39;;;;;;;1.80;1.30;;;17.50;45.40;;;;;;5033875;28;20040;-75
2021/05/08 09:51:26;;;;;;;4.05;1.05;;;17.90;46.40;;;;;;5051697;28;20092;-76
2021/05/08 09:54:09;;;;;;;3.30;1.00;;;18.50;44.60;;;;;;5033988;28;20416;-75
2021/05/08 09:56:46;;;;;;;2.67;1.02;;;18.80;45.10;;;;;;5051667;28;20500;-74
2021/05/08 09:59:34;;;;;;;1.67;1.23;;;18.90;43.40;;;;;;5051828;28;20531;-74
2021/05/08 10:02:05;;;;;;;4.65;1.23;;;18.80;43.40;;;;;;5051659;28;20139;-75
2021/05/08 10:04:35;;;;;;;4.22;1.17;;;18.70;44.30;;;;;;5051773;28;20445;-75
2021/05/08 10:07:14;;;;;;;1.70;1.50;;;18.90;43.80;;;;;;5051492;28;20480;-76
2021/05/08 10:09:42;;;;;;;1.70;1.10;;;19.30;43.00;;;;;;5017452;28;20087;-75
2021/05/08 10:12:10;;;;;;;0.90;0.90;;;19.50;43.40;;;;;;5033784;28;20024;-75
2021/05/08 10:14:38;;;;;;;4.28;1.00;;;19.30;42.00;;;;;;5033997;28;20033;-75
2021/05/08 10:17:04;;;;;;;2.83;1.08;;;19.50;43.10;;;;;;5033611;28;20028;-75
2021/05/08 10:19:32;;;;;;;6.15;1.63;;;19.30;43.30;;;;;;5052041;28;20029;-75
2021/05/08 10:22:01;;;;;;;3.22;1.00;;;19.20;41.80;;;;;;5017169;28;20029;-75
2021/05/08 10:24:27;;;;;;;1.17;0.80;;;19.10;42.10;;;;;;5051574;28;20035;-74
2021/05/08 10:26:58;;;;;;;0.77;0.77;;;19.40;42.10;;;;;;5051460;28;20032;-75
2021/05/08 10:29:30;;;;;;;4.47;4.07;;;19.70;41.10;;;;;;5017694;28;20384;-75
2021/05/08 10:31:58;;;;;;;4.13;0.80;;;20.10;40.60;;;;;;5033913;28;20103;-75
2021/05/08 10:34:31;;;;;;;2.38;0.93;;;20.10;39.60;;;;;;5051788;28;20476;-75
2021/05/08 10:37:11;;;;;;;4.35;0.75;;;19.70;40.60;;;;;;5033906;28;20028;-75
2021/05/08 10:39:51;;;;;;;1.52;0.88;;;19.10;38.30;;;;;;5033601;28;20044;-75
2021/05/08 10:42:40;;;;;;;0.95;0.70;;;18.70;40.10;;;;;;5051613;28;20103;-76
2021/05/08 10:45:12;;;;;;;1.80;0.90;;;19.20;41.10;;;;;;5053514;28;20381;-75
2021/05/08 10:47:53;;;;;;;9.35;4.25;;;19.90;40.10;;;;;;5055207;28;20096;-75
2021/05/08 10:50:32;;;;;;;10.43;7.75;;;20.70;40.30;;;;;;5037125;28;20025;-75
2021/05/08 10:53:01;;;;;;;0.90;0.80;;;20.70;38.70;;;;;;5037179;28;20025;-75
2021/05/08 10:55:52;;;;;;;0.93;0.70;;;20.20;36.90;;;;;;5020647;28;20052;-75
2021/05/08 10:58:19;;;;;;;1.38;0.85;;;20.30;40.00;;;;;;5030232;28;20033;-75
2021/05/08 11:00:58;;;;;;;2.40;0.80;;;20.80;38.20;;;;;;5055143;28;20027;-75
2021/05/08 11:03:31;;;;;;;1.52;1.02;;;20.50;37.60;;;;;;5037036;28;20392;-75
2021/05/08 11:06:03;;;;;;;1.95;1.10;;;21.20;38.50;;;;;;5020973;28;20472;-76
2021/05/08 11:08:29;;;;;;;1.65;1.00;;;21.60;38.60;;;;;;5055029;28;20028;-72
2021/05/08 11:11:05;;;;;;;3.05;1.33;;;21.80;37.30;;;;;;5036876;28;20033;-72
2021/05/08 11:13:43;;;;;;;1.88;1.05;;;21.70;37.50;;;;;;5054325;28;20024;-72
2021/05/08 11:16:19;;;;;;;1.75;1.00;;;21.30;37.60;;;;;;5019828;28;20056;-72
2021/05/08 11:18:46;;;;;;;0.52;0.52;;;21.40;37.90;;;;;;5036548;28;20029;-72
2021/05/08 11:21:12;;;;;;;1.67;1.30;;;21.70;36.80;;;;;;5054462;28;20025;-72
2021/05/08 11:23:51;;;;;;;1.45;0.80;;;21.40;36.10;;;;;;5054265;28;20025;-72
2021/05/08 11:26:29;;;;;;;0.68;0.60;;;21.30;38.30;;;;;;5019620;28;20076;-72
2021/05/08 11:29:12;;;;;;;3.58;0.80;;;21.20;37.00;;;;;;5054215;28;20021;-72
2021/05/08 11:31:50;;;;;;;2.92;1.52;;;21.00;38.20;;;;;;5036509;28;20021;-72
2021/05/08 11:34:18;;;;;;;1.35;0.80;;;21.50;38.20;;;;;;5054032;28;20420;-72
2021/05/08 11:36:50;;;;;;;2.20;0.80;;;21.50;35.60;;;;;;5036073;28;20032;-72
2021/05/08 11:39:21;;;;;;;4.15;1.00;;;21.50;37.00;;;;;;5036502;28;20504;-72
2021/05/08 11:41:51;;;;;;;2.50;0.75;;;21.80;36.70;;;;;;5019637;28;20029;-72
2021/05/08 11:44:31;;;;;;;1.38;0.88;;;22.10;36.50;;;;;;5019475;28;20499;-72
2021/05/08 11:47:27;;;;;;;4.20;1.58;;;22.10;34.50;;;;;;5054074;28;20070;-71
2021/05/08 11:50:13;;;;;;;17.45;10.20;;;21.80;37.50;;;;;;5052922;28;20052;-71
2021/05/08 11:52:48;;;;;;;2.35;1.52;;;21.60;37.60;;;;;;5035943;28;20468;-72
2021/05/08 11:55:16;;;;;;;7.40;1.35;;;21.40;37.20;;;;;;5035913;28;20480;-74
2021/05/08 11:57:47;;;;;;;2.00;0.88;;;21.00;36.50;;;;;;5053971;28;20032;-75
2021/05/08 12:00:19;;;;;;;;;;;20.70;39.10;;;;;;5054637;28;20032;-75
2021/05/08 12:02:45;;;;;;;1.70;0.75;;;20.70;36.40;;;;;;5035988;28;19905;-75
2021/05/08 12:05:11;;;;;;;1.15;0.90;;;20.50;37.60;;;;;;5053617;28;20029;-74
2021/05/08 12:07:44;;;;;;;2.78;0.90;;;20.50;38.00;;;;;;5053465;28;20028;-75
2021/05/08 12:10:37;;;;;;;1.95;0.68;;;20.80;37.40;;;;;;5035928;28;20036;-74
2021/05/08 12:13:03;;;;;;;3.58;0.88;;;20.90;36.80;;;;;;5033573;28;20079;-75
2021/05/08 12:15:31;;;;;;;1.15;0.85;;;20.70;37.20;;;;;;5035741;28;20119;-75
2021/05/08 12:17:59;;;;;;;1.10;0.80;;;20.40;37.70;;;;;;5035798;28;20036;-75
2021/05/08 12:20:30;;;;;;;1.05;0.65;;;20.20;38.10;;;;;;5053396;28;20481;-75
2021/05/08 12:23:02;;;;;;;2.80;0.80;;;19.90;39.10;;;;;;5053915;28;20439;-75
2021/05/08 12:25:28;;;;;;;0.60;0.60;;;19.90;39.30;;;;;;5035470;28;20443;-74
2021/05/08 12:28:14;;;;;;;4.13;0.80;;;20.10;40.00;;;;;;5052972;28;20103;-75
2021/05/08 13:29:46;;;;;;;2.50;0.95;;;19.10;40.90;;;;;;5089692;27;20407;-75
2021/05/08 13:32:12;;;;;;;2.70;1.73;;;19.30;41.70;;;;;;5088595;28;20032;-75
2021/05/08 13:34:38;;;;;;;0.70;0.70;;;19.40;40.50;;;;;;5088551;28;20024;-75
2021/05/08 13:37:03;;;;;;;1.15;0.65;;;19.50;39.70;;;;;;5089616;28;20028;-75
2021/05/08 13:39:29;;;;;;;0.90;0.65;;;19.70;39.40;;;;;;5089930;28;20028;-76
2021/05/08 13:41:55;;;;;;;1.50;0.77;;;19.40;40.10;;;;;;5089479;28;20427;-75
2021/05/08 13:44:20;;;;;;;3.35;0.70;;;19.10;40.30;;;;;;5089430;28;20442;-75
2021/05/08 13:46:46;;;;;;;2.55;0.80;;;19.20;40.40;;;;;;5089755;28;20059;-75
2021/05/08 13:49:12;;;;;;;2.35;1.00;;;19.30;41.60;;;;;;5089179;28;20025;-75
2021/05/08 13:51:38;;;;;;;0.50;0.50;;;19.40;41.30;;;;;;5089449;28;20379;-75
2021/05/08 13:54:04;;;;;;;2.47;0.65;;;19.40;40.80;;;;;;5088238;28;20020;-75
2021/05/08 13:56:30;;;;;;;1.20;0.95;;;19.60;40.10;;;;;;5089130;28;20063;-75
2021/05/08 15:41:13;;;;;;;1.48;1.27;;;18.60;41.80;;;;;;5110092;27;20736;-76
2021/05/08 15:43:38;;;;;;;1.08;0.70;;;18.70;42.80;;;;;;5125669;28;20038;-76
2021/05/08 15:46:04;;;;;;;1.90;0.80;;;18.90;42.30;;;;;;5109872;28;20024;-76
2021/05/08 15:48:30;;;;;;;0.85;0.85;;;19.00;41.70;;;;;;5108472;28;20024;-76